sensor_id;sensor_type;location;lat;lon;timestamp;P1;durP1;ratioP1;P2;durP2;ratioP2
59052;SDS011;44843;44.728;10.396;2022-10-30T00:02:00;4.88;;;3.13;;
59052;SDS011;44843;44.728;10.396;2022-10-30T00:04:26;5.15;;;3.00;;
59052;SDS011;44843;44.728;10.396;2022-10-30T00:06:51;6.30;;;2.92;;
59052;SDS011;44843;44.728;10.396;2022-10-30T00:09:17;6.05;;;3.97;;
59052;SDS011;44843;44.728;10.396;2022-10-30T00:11:42;7.47;;;3.50;;
59052;SDS011;44843;44.728;10.396;2022-10-30T00:14:07;4.57;;;2.83;;
59052;SDS011;44843;44.728;10.396;2022-10-30T00:16:33;4.75;;;2.97;;
59052;SDS011;44843;44.728;10.396;2022-10-30T00:18:58;5.80;;;3.50;;
59052;SDS011;44843;44.728;10.396;2022-10-30T00:21:24;5.20;;;3.38;;
59052;SDS011;44843;44.728;10.396;2022-10-30T00:23:51;7.80;;;4.80;;
59052;SDS011;44843;44.728;10.396;2022-10-30T00:26:17;11.07;;;3.40;;
59052;SDS011;44843;44.728;10.396;2022-10-30T00:28:48;10.52;;;3.60;;
59052;SDS011;44843;44.728;10.396;2022-10-30T00:31:14;8.40;;;2.95;;
59052;SDS011;44843;44.728;10.396;2022-10-30T00:33:40;7.78;;;3.42;;
59052;SDS011;44843;44.728;10.396;2022-10-30T00:36:05;10.48;;;3.28;;
59052;SDS011;44843;44.728;10.396;2022-10-30T00:38:31;6.65;;;3.20;;
59052;SDS011;44843;44.728;10.396;2022-10-30T00:40:56;6.53;;;3.53;;
59052;SDS011;44843;44.728;10.396;2022-10-30T00:43:55;8.27;;;3.03;;
59052;SDS011;44843;44.728;10.396;2022-10-30T00:48:42;5.63;;;3.10;;
59052;SDS011;44843;44.728;10.396;2022-10-30T00:51:09;5.72;;;3.03;;
59052;SDS011;44843;44.728;10.396;2022-10-30T00:53:36;5.13;;;2.97;;
59052;SDS011;44843;44.728;10.396;2022-10-30T00:56:03;5.80;;;2.53;;
59052;SDS011;44843;44.728;10.396;2022-10-30T00:58:32;4.28;;;2.80;;
59052;SDS011;44843;44.728;10.396;2022-10-30T01:01:03;5.47;;;2.63;;
59052;SDS011;44843;44.728;10.396;2022-10-30T01:03:31;10.60;;;2.90;;
59052;SDS011;44843;44.728;10.396;2022-10-30T01:06:00;10.40;;;2.72;;
59052;SDS011;44843;44.728;10.396;2022-10-30T01:08:30;4.22;;;2.90;;
59052;SDS011;44843;44.728;10.396;2022-10-30T01:10:57;8.25;;;2.97;;
59052;SDS011;44843;44.728;10.396;2022-10-30T01:13:23;6.47;;;2.90;;
59052;SDS011;44843;44.728;10.396;2022-10-30T01:26:49;9.48;;;3.15;;
59052;SDS011;44843;44.728;10.396;2022-10-30T01:30:10;9.93;;;3.63;;
59052;SDS011;44843;44.728;10.396;2022-10-30T01:32:28;6.45;;;3.00;;
59052;SDS011;44843;44.728;10.396;2022-10-30T01:35:15;5.95;;;3.03;;
59052;SDS011;44843;44.728;10.396;2022-10-30T01:37:56;5.78;;;3.28;;
59052;SDS011;44843;44.728;10.396;2022-10-30T01:40:44;8.88;;;3.03;;
59052;SDS011;44843;44.728;10.396;2022-10-30T01:43:09;6.00;;;3.35;;
59052;SDS011;44843;44.728;10.396;2022-10-30T01:48:10;6.25;;;2.72;;
59052;SDS011;44843;44.728;10.396;2022-10-30T01:56:12;4.82;;;2.65;;
59052;SDS011;44843;44.728;10.396;2022-10-30T01:58:50;8.05;;;3.22;;
59052;SDS011;44843;44.728;10.396;2022-10-30T02:01:24;7.45;;;3.13;;
59052;SDS011;44843;44.728;10.396;2022-10-30T02:03:52;7.07;;;3.05;;
59052;SDS011;44843;44.728;10.396;2022-10-30T02:06:18;5.22;;;3.15;;
59052;SDS011;44843;44.728;10.396;2022-10-30T02:08:43;7.40;;;3.13;;
59052;SDS011;44843;44.728;10.396;2022-10-30T02:11:08;4.05;;;2.83;;
59052;SDS011;44843;44.728;10.396;2022-10-30T02:13:35;5.70;;;3.35;;
59052;SDS011;44843;44.728;10.396;2022-10-30T02:16:01;6.10;;;2.70;;
59052;SDS011;44843;44.728;10.396;2022-10-30T02:18:27;6.40;;;2.90;;
59052;SDS011;44843;44.728;10.396;2022-10-30T02:20:53;5.07;;;2.70;;
59052;SDS011;44843;44.728;10.396;2022-10-30T02:23:19;9.20;;;3.17;;
59052;SDS011;44843;44.728;10.396;2022-10-30T02:25:46;5.70;;;2.20;;
59052;SDS011;44843;44.728;10.396;2022-10-30T02:28:12;4.75;;;2.75;;
59052;SDS011;44843;44.728;10.396;2022-10-30T02:30:37;5.50;;;2.55;;
59052;SDS011;44843;44.728;10.396;2022-10-30T02:33:04;5.00;;;2.28;;
59052;SDS011;44843;44.728;10.396;2022-10-30T02:35:30;9.18;;;2.70;;
59052;SDS011;44843;44.728;10.396;2022-10-30T02:37:55;5.78;;;2.38;;
59052;SDS011;44843;44.728;10.396;2022-10-30T02:40:21;9.25;;;2.50;;
59052;SDS011;44843;44.728;10.396;2022-10-30T02:42:53;6.22;;;2.40;;
59052;SDS011;44843;44.728;10.396;2022-10-30T02:45:19;6.07;;;3.08;;
59052;SDS011;44843;44.728;10.396;2022-10-30T02:47:45;8.02;;;2.88;;
59052;SDS011;44843;44.728;10.396;2022-10-30T02:50:10;6.95;;;2.55;;
59052;SDS011;44843;44.728;10.396;2022-10-30T02:52:35;6.03;;;2.55;;
59052;SDS011;44843;44.728;10.396;2022-10-30T02:55:01;7.53;;;2.58;;
59052;SDS011;44843;44.728;10.396;2022-10-30T02:57:26;5.70;;;3.13;;
59052;SDS011;44843;44.728;10.396;2022-10-30T02:59:52;4.40;;;2.60;;
59052;SDS011;44843;44.728;10.396;2022-10-30T03:02:17;8.57;;;2.90;;
59052;SDS011;44843;44.728;10.396;2022-10-30T03:04:43;8.18;;;2.20;;
59052;SDS011;44843;44.728;10.396;2022-10-30T03:07:08;4.50;;;2.42;;
59052;SDS011;44843;44.728;10.396;2022-10-30T03:09:33;6.90;;;3.00;;
59052;SDS011;44843;44.728;10.396;2022-10-30T03:11:59;3.78;;;2.42;;
59052;SDS011;44843;44.728;10.396;2022-10-30T03:14:24;5.80;;;1.98;;
59052;SDS011;44843;44.728;10.396;2022-10-30T03:16:50;5.78;;;2.40;;
59052;SDS011;44843;44.728;10.396;2022-10-30T03:19:16;3.30;;;2.25;;
59052;SDS011;44843;44.728;10.396;2022-10-30T03:21:43;4.18;;;1.83;;
59052;SDS011;44843;44.728;10.396;2022-10-30T03:24:08;5.30;;;2.20;;
59052;SDS011;44843;44.728;10.396;2022-10-30T03:26:34;4.97;;;2.35;;
59052;SDS011;44843;44.728;10.396;2022-10-30T03:28:59;7.57;;;2.38;;
59052;SDS011;44843;44.728;10.396;2022-10-30T03:31:24;3.97;;;1.92;;
59052;SDS011;44843;44.728;10.396;2022-10-30T03:33:50;3.83;;;1.92;;
59052;SDS011;44843;44.728;10.396;2022-10-30T03:36:15;5.25;;;2.42;;
59052;SDS011;44843;44.728;10.396;2022-10-30T03:38:41;3.60;;;2.30;;
59052;SDS011;44843;44.728;10.396;2022-10-30T03:41:07;6.93;;;2.10;;
59052;SDS011;44843;44.728;10.396;2022-10-30T03:43:33;4.43;;;1.90;;
59052;SDS011;44843;44.728;10.396;2022-10-30T03:45:59;3.58;;;1.83;;
59052;SDS011;44843;44.728;10.396;2022-10-30T03:48:25;6.68;;;3.28;;
59052;SDS011;44843;44.728;10.396;2022-10-30T03:50:52;4.32;;;1.95;;
59052;SDS011;44843;44.728;10.396;2022-10-30T03:53:18;5.82;;;1.98;;
59052;SDS011;44843;44.728;10.396;2022-10-30T03:55:44;2.55;;;1.67;;
59052;SDS011;44843;44.728;10.396;2022-10-30T03:58:10;5.18;;;2.53;;
59052;SDS011;44843;44.728;10.396;2022-10-30T04:00:35;5.57;;;2.08;;
59052;SDS011;44843;44.728;10.396;2022-10-30T04:03:01;4.88;;;2.63;;
59052;SDS011;44843;44.728;10.396;2022-10-30T04:05:29;4.35;;;2.00;;
59052;SDS011;44843;44.728;10.396;2022-10-30T04:07:59;4.78;;;2.90;;
59052;SDS011;44843;44.728;10.396;2022-10-30T04:10:25;7.15;;;2.83;;
59052;SDS011;44843;44.728;10.396;2022-10-30T04:12:52;4.38;;;2.20;;
59052;SDS011;44843;44.728;10.396;2022-10-30T04:15:23;4.65;;;2.00;;
59052;SDS011;44843;44.728;10.396;2022-10-30T04:17:49;6.45;;;2.10;;
59052;SDS011;44843;44.728;10.396;2022-10-30T04:20:15;5.40;;;1.88;;
59052;SDS011;44843;44.728;10.396;2022-10-30T04:22:45;8.35;;;2.40;;
59052;SDS011;44843;44.728;10.396;2022-10-30T04:25:10;5.05;;;2.00;;
59052;SDS011;44843;44.728;10.396;2022-10-30T04:27:42;3.72;;;1.75;;
59052;SDS011;44843;44.728;10.396;2022-10-30T04:30:09;3.25;;;1.77;;
59052;SDS011;44843;44.728;10.396;2022-10-30T04:32:36;3.40;;;1.58;;
59052;SDS011;44843;44.728;10.396;2022-10-30T04:35:09;4.57;;;1.75;;
59052;SDS011;44843;44.728;10.396;2022-10-30T04:37:34;4.40;;;1.92;;
59052;SDS011;44843;44.728;10.396;2022-10-30T04:39:59;4.50;;;2.00;;
59052;SDS011;44843;44.728;10.396;2022-10-30T04:42:25;4.18;;;2.30;;
59052;SDS011;44843;44.728;10.396;2022-10-30T04:44:50;4.15;;;1.85;;
59052;SDS011;44843;44.728;10.396;2022-10-30T04:47:16;5.75;;;2.38;;
59052;SDS011;44843;44.728;10.396;2022-10-30T04:49:41;6.88;;;2.63;;
59052;SDS011;44843;44.728;10.396;2022-10-30T04:56:57;4.18;;;1.85;;
59052;SDS011;44843;44.728;10.396;2022-10-30T04:59:23;4.97;;;1.95;;
59052;SDS011;44843;44.728;10.396;2022-10-30T05:01:48;3.30;;;1.80;;
59052;SDS011;44843;44.728;10.396;2022-10-30T05:04:13;4.07;;;1.90;;
59052;SDS011;44843;44.728;10.396;2022-10-30T05:06:39;4.47;;;2.00;;
59052;SDS011;44843;44.728;10.396;2022-10-30T05:09:04;5.25;;;1.83;;
59052;SDS011;44843;44.728;10.396;2022-10-30T05:11:30;5.82;;;2.45;;
59052;SDS011;44843;44.728;10.396;2022-10-30T05:13:55;6.40;;;2.65;;
59052;SDS011;44843;44.728;10.396;2022-10-30T05:16:21;7.32;;;2.20;;
59052;SDS011;44843;44.728;10.396;2022-10-30T05:18:46;4.82;;;1.75;;
59052;SDS011;44843;44.728;10.396;2022-10-30T05:21:11;6.65;;;1.80;;
59052;SDS011;44843;44.728;10.396;2022-10-30T05:23:37;3.67;;;1.95;;
59052;SDS011;44843;44.728;10.396;2022-10-30T05:26:02;5.05;;;2.00;;
59052;SDS011;44843;44.728;10.396;2022-10-30T05:28:28;3.03;;;1.80;;
59052;SDS011;44843;44.728;10.396;2022-10-30T05:30:53;3.67;;;1.83;;
59052;SDS011;44843;44.728;10.396;2022-10-30T05:33:19;4.88;;;1.85;;
59052;SDS011;44843;44.728;10.396;2022-10-30T05:35:44;4.72;;;2.28;;
59052;SDS011;44843;44.728;10.396;2022-10-30T05:38:10;4.22;;;2.10;;
59052;SDS011;44843;44.728;10.396;2022-10-30T05:40:35;4.25;;;2.03;;
59052;SDS011;44843;44.728;10.396;2022-10-30T05:43:01;4.60;;;1.98;;
59052;SDS011;44843;44.728;10.396;2022-10-30T05:45:28;5.68;;;1.77;;
59052;SDS011;44843;44.728;10.396;2022-10-30T05:47:57;3.97;;;2.10;;
59052;SDS011;44843;44.728;10.396;2022-10-30T05:50:29;3.95;;;1.75;;
59052;SDS011;44843;44.728;10.396;2022-10-30T05:52:56;2.72;;;1.52;;
59052;SDS011;44843;44.728;10.396;2022-10-30T05:55:22;5.05;;;1.90;;
59052;SDS011;44843;44.728;10.396;2022-10-30T05:57:47;4.32;;;1.92;;
59052;SDS011;44843;44.728;10.396;2022-10-30T06:00:13;4.95;;;1.77;;
59052;SDS011;44843;44.728;10.396;2022-10-30T06:02:39;3.80;;;1.90;;
59052;SDS011;44843;44.728;10.396;2022-10-30T06:05:05;3.38;;;1.50;;
59052;SDS011;44843;44.728;10.396;2022-10-30T06:07:30;3.92;;;1.58;;
59052;SDS011;44843;44.728;10.396;2022-10-30T06:09:55;3.40;;;1.60;;
59052;SDS011;44843;44.728;10.396;2022-10-30T06:12:21;3.25;;;1.60;;
59052;SDS011;44843;44.728;10.396;2022-10-30T06:14:46;6.70;;;1.88;;
59052;SDS011;44843;44.728;10.396;2022-10-30T06:17:12;3.28;;;2.35;;
59052;SDS011;44843;44.728;10.396;2022-10-30T06:19:37;2.67;;;1.42;;
59052;SDS011;44843;44.728;10.396;2022-10-30T06:22:02;4.60;;;1.50;;
59052;SDS011;44843;44.728;10.396;2022-10-30T06:24:28;5.60;;;1.60;;
59052;SDS011;44843;44.728;10.396;2022-10-30T06:26:53;6.90;;;1.80;;
59052;SDS011;44843;44.728;10.396;2022-10-30T06:29:18;4.32;;;2.35;;
59052;SDS011;44843;44.728;10.396;2022-10-30T06:31:44;6.68;;;2.10;;
59052;SDS011;44843;44.728;10.396;2022-10-30T06:34:09;3.72;;;1.70;;
59052;SDS011;44843;44.728;10.396;2022-10-30T06:36:34;5.18;;;2.25;;
59052;SDS011;44843;44.728;10.396;2022-10-30T06:39:00;6.38;;;1.90;;
59052;SDS011;44843;44.728;10.396;2022-10-30T06:41:25;3.38;;;1.70;;
59052;SDS011;44843;44.728;10.396;2022-10-30T06:43:51;4.28;;;1.73;;
59052;SDS011;44843;44.728;10.396;2022-10-30T06:46:16;4.75;;;1.80;;
59052;SDS011;44843;44.728;10.396;2022-10-30T06:48:41;5.43;;;1.98;;
59052;SDS011;44843;44.728;10.396;2022-10-30T06:51:07;8.80;;;2.67;;
59052;SDS011;44843;44.728;10.396;2022-10-30T06:53:32;6.65;;;2.10;;
59052;SDS011;44843;44.728;10.396;2022-10-30T06:56:01;4.20;;;1.70;;
59052;SDS011;44843;44.728;10.396;2022-10-30T06:58:28;5.28;;;2.00;;
59052;SDS011;44843;44.728;10.396;2022-10-30T07:00:54;10.93;;;3.05;;
59052;SDS011;44843;44.728;10.396;2022-10-30T07:03:20;6.00;;;1.95;;
59052;SDS011;44843;44.728;10.396;2022-10-30T07:05:46;3.22;;;1.80;;
59052;SDS011;44843;44.728;10.396;2022-10-30T07:08:11;4.75;;;1.83;;
59052;SDS011;44843;44.728;10.396;2022-10-30T07:10:38;4.63;;;1.80;;
59052;SDS011;44843;44.728;10.396;2022-10-30T07:13:03;2.30;;;1.50;;
59052;SDS011;44843;44.728;10.396;2022-10-30T07:15:29;3.88;;;1.90;;
59052;SDS011;44843;44.728;10.396;2022-10-30T07:17:55;5.93;;;1.95;;
59052;SDS011;44843;44.728;10.396;2022-10-30T07:20:22;6.85;;;2.08;;
59052;SDS011;44843;44.728;10.396;2022-10-30T07:22:47;3.45;;;1.55;;
59052;SDS011;44843;44.728;10.396;2022-10-30T07:25:13;4.82;;;1.70;;
59052;SDS011;44843;44.728;10.396;2022-10-30T07:27:46;6.50;;;2.03;;
59052;SDS011;44843;44.728;10.396;2022-10-30T07:30:15;6.13;;;2.15;;
59052;SDS011;44843;44.728;10.396;2022-10-30T07:32:41;7.25;;;2.08;;
59052;SDS011;44843;44.728;10.396;2022-10-30T07:35:07;4.20;;;2.40;;
59052;SDS011;44843;44.728;10.396;2022-10-30T07:37:34;3.60;;;1.83;;
59052;SDS011;44843;44.728;10.396;2022-10-30T07:40:00;5.10;;;2.45;;
59052;SDS011;44843;44.728;10.396;2022-10-30T07:42:26;4.18;;;1.88;;
59052;SDS011;44843;44.728;10.396;2022-10-30T07:44:51;5.35;;;1.73;;
59052;SDS011;44843;44.728;10.396;2022-10-30T07:47:17;5.07;;;2.33;;
59052;SDS011;44843;44.728;10.396;2022-10-30T07:49:42;3.65;;;1.55;;
59052;SDS011;44843;44.728;10.396;2022-10-30T07:52:07;3.30;;;1.73;;
59052;SDS011;44843;44.728;10.396;2022-10-30T07:54:33;3.53;;;1.70;;
59052;SDS011;44843;44.728;10.396;2022-10-30T07:56:58;4.25;;;1.60;;
59052;SDS011;44843;44.728;10.396;2022-10-30T07:59:24;6.80;;;2.47;;
59052;SDS011;44843;44.728;10.396;2022-10-30T08:01:49;5.03;;;1.73;;
59052;SDS011;44843;44.728;10.396;2022-10-30T08:04:15;3.67;;;2.30;;
59052;SDS011;44843;44.728;10.396;2022-10-30T08:06:41;4.82;;;1.98;;
59052;SDS011;44843;44.728;10.396;2022-10-30T08:09:06;6.47;;;2.55;;
59052;SDS011;44843;44.728;10.396;2022-10-30T08:11:32;3.60;;;1.58;;
59052;SDS011;44843;44.728;10.396;2022-10-30T08:13:57;6.95;;;2.03;;
59052;SDS011;44843;44.728;10.396;2022-10-30T08:16:23;5.65;;;2.40;;
59052;SDS011;44843;44.728;10.396;2022-10-30T08:18:48;5.45;;;2.30;;
59052;SDS011;44843;44.728;10.396;2022-10-30T08:21:14;6.43;;;2.38;;
59052;SDS011;44843;44.728;10.396;2022-10-30T08:23:39;3.60;;;1.88;;
59052;SDS011;44843;44.728;10.396;2022-10-30T08:26:05;4.78;;;2.33;;
59052;SDS011;44843;44.728;10.396;2022-10-30T08:28:30;5.85;;;2.83;;
59052;SDS011;44843;44.728;10.396;2022-10-30T08:30:57;12.52;;;3.47;;
59052;SDS011;44843;44.728;10.396;2022-10-30T08:33:23;11.95;;;2.92;;
59052;SDS011;44843;44.728;10.396;2022-10-30T08:35:49;5.82;;;2.72;;
59052;SDS011;44843;44.728;10.396;2022-10-30T08:38:16;7.30;;;4.93;;
59052;SDS011;44843;44.728;10.396;2022-10-30T08:40:42;12.32;;;5.90;;
59052;SDS011;44843;44.728;10.396;2022-10-30T08:43:08;17.67;;;7.53;;
59052;SDS011;44843;44.728;10.396;2022-10-30T08:45:34;14.18;;;6.10;;
59052;SDS011;44843;44.728;10.396;2022-10-30T08:48:00;15.38;;;7.28;;
59052;SDS011;44843;44.728;10.396;2022-10-30T08:50:28;12.63;;;7.30;;
59052;SDS011;44843;44.728;10.396;2022-10-30T08:52:53;13.13;;;7.53;;
59052;SDS011;44843;44.728;10.396;2022-10-30T08:55:19;19.52;;;7.97;;
59052;SDS011;44843;44.728;10.396;2022-10-30T08:57:44;16.48;;;7.90;;
59052;SDS011;44843;44.728;10.396;2022-10-30T09:00:10;15.23;;;8.30;;
59052;SDS011;44843;44.728;10.396;2022-10-30T09:02:36;12.77;;;7.55;;
59052;SDS011;44843;44.728;10.396;2022-10-30T09:05:07;13.32;;;7.82;;
59052;SDS011;44843;44.728;10.396;2022-10-30T09:07:33;12.88;;;6.60;;
59052;SDS011;44843;44.728;10.396;2022-10-30T09:09:59;11.70;;;7.40;;
59052;SDS011;44843;44.728;10.396;2022-10-30T09:12:24;18.42;;;8.60;;
59052;SDS011;44843;44.728;10.396;2022-10-30T09:14:50;16.45;;;8.07;;
59052;SDS011;44843;44.728;10.396;2022-10-30T09:17:15;15.73;;;7.78;;
59052;SDS011;44843;44.728;10.396;2022-10-30T09:19:41;16.50;;;7.95;;
59052;SDS011;44843;44.728;10.396;2022-10-30T09:22:06;12.55;;;6.78;;
59052;SDS011;44843;44.728;10.396;2022-10-30T09:24:31;17.55;;;8.45;;
59052;SDS011;44843;44.728;10.396;2022-10-30T09:26:57;14.60;;;8.07;;
59052;SDS011;44843;44.728;10.396;2022-10-30T09:29:22;15.93;;;8.95;;
59052;SDS011;44843;44.728;10.396;2022-10-30T09:31:48;17.95;;;8.18;;
59052;SDS011;44843;44.728;10.396;2022-10-30T09:34:13;18.67;;;8.68;;
59052;SDS011;44843;44.728;10.396;2022-10-30T09:36:39;16.80;;;7.70;;
59052;SDS011;44843;44.728;10.396;2022-10-30T09:39:07;17.48;;;8.77;;
59052;SDS011;44843;44.728;10.396;2022-10-30T09:49:42;15.30;;;8.82;;
59052;SDS011;44843;44.728;10.396;2022-10-30T09:52:18;18.90;;;8.55;;
59052;SDS011;44843;44.728;10.396;2022-10-30T10:01:14;16.85;;;8.32;;
59052;SDS011;44843;44.728;10.396;2022-10-30T10:06:32;15.48;;;7.28;;
59052;SDS011;44843;44.728;10.396;2022-10-30T10:09:05;16.80;;;8.20;;
59052;SDS011;44843;44.728;10.396;2022-10-30T10:11:39;14.90;;;8.48;;
59052;SDS011;44843;44.728;10.396;2022-10-30T10:16:47;20.50;;;9.73;;
59052;SDS011;44843;44.728;10.396;2022-10-30T10:19:26;21.67;;;10.38;;
59052;SDS011;44843;44.728;10.396;2022-10-30T10:24:25;20.00;;;10.05;;
59052;SDS011;44843;44.728;10.396;2022-10-30T10:27:12;19.10;;;9.55;;
59052;SDS011;44843;44.728;10.396;2022-10-30T10:40:21;16.35;;;9.68;;
59052;SDS011;44843;44.728;10.396;2022-10-30T10:46:12;17.30;;;8.32;;
59052;SDS011;44843;44.728;10.396;2022-10-30T10:51:28;17.60;;;8.75;;
59052;SDS011;44843;44.728;10.396;2022-10-30T10:54:00;18.63;;;9.48;;
59052;SDS011;44843;44.728;10.396;2022-10-30T10:56:34;15.00;;;8.45;;
59052;SDS011;44843;44.728;10.396;2022-10-30T10:59:04;16.50;;;8.13;;
59052;SDS011;44843;44.728;10.396;2022-10-30T11:01:39;15.10;;;7.77;;
59052;SDS011;44843;44.728;10.396;2022-10-30T11:09:47;14.77;;;7.68;;
59052;SDS011;44843;44.728;10.396;2022-10-30T11:12:18;16.38;;;7.35;;
59052;SDS011;44843;44.728;10.396;2022-10-30T11:14:51;20.13;;;8.57;;
59052;SDS011;44843;44.728;10.396;2022-10-30T11:20:10;17.02;;;8.40;;
59052;SDS011;44843;44.728;10.396;2022-10-30T11:22:40;21.13;;;9.75;;
59052;SDS011;44843;44.728;10.396;2022-10-30T11:25:21;17.02;;;9.77;;
59052;SDS011;44843;44.728;10.396;2022-10-30T11:30:19;15.25;;;10.00;;
59052;SDS011;44843;44.728;10.396;2022-10-30T11:32:45;22.35;;;10.00;;
59052;SDS011;44843;44.728;10.396;2022-10-30T11:35:12;18.45;;;9.27;;
59052;SDS011;44843;44.728;10.396;2022-10-30T11:42:35;17.85;;;10.30;;
59052;SDS011;44843;44.728;10.396;2022-10-30T11:45:03;29.95;;;12.27;;
59052;SDS011;44843;44.728;10.396;2022-10-30T11:47:36;24.65;;;11.18;;
59052;SDS011;44843;44.728;10.396;2022-10-30T11:50:03;20.55;;;10.48;;
59052;SDS011;44843;44.728;10.396;2022-10-30T11:52:35;21.75;;;10.20;;
59052;SDS011;44843;44.728;10.396;2022-10-30T11:55:09;20.60;;;11.25;;
59052;SDS011;44843;44.728;10.396;2022-10-30T11:57:41;20.33;;;10.73;;
59052;SDS011;44843;44.728;10.396;2022-10-30T12:00:25;25.23;;;11.45;;
59052;SDS011;44843;44.728;10.396;2022-10-30T12:02:53;20.35;;;11.07;;
59052;SDS011;44843;44.728;10.396;2022-10-30T12:10:33;24.58;;;11.93;;
59052;SDS011;44843;44.728;10.396;2022-10-30T12:13:05;21.95;;;11.75;;
59052;SDS011;44843;44.728;10.396;2022-10-30T12:15:36;31.08;;;10.98;;
59052;SDS011;44843;44.728;10.396;2022-10-30T12:18:03;26.02;;;11.55;;
59052;SDS011;44843;44.728;10.396;2022-10-30T12:20:31;25.98;;;11.65;;
59052;SDS011;44843;44.728;10.396;2022-10-30T12:23:09;17.45;;;11.27;;
59052;SDS011;44843;44.728;10.396;2022-10-30T12:25:48;21.20;;;11.90;;
59052;SDS011;44843;44.728;10.396;2022-10-30T12:28:17;20.08;;;10.90;;
59052;SDS011;44843;44.728;10.396;2022-10-30T12:31:07;24.17;;;10.88;;
59052;SDS011;44843;44.728;10.396;2022-10-30T12:36:13;21.00;;;10.30;;
59052;SDS011;44843;44.728;10.396;2022-10-30T12:38:46;21.45;;;10.25;;
59052;SDS011;44843;44.728;10.396;2022-10-30T12:41:26;23.23;;;10.30;;
59052;SDS011;44843;44.728;10.396;2022-10-30T12:44:02;19.23;;;9.43;;
59052;SDS011;44843;44.728;10.396;2022-10-30T12:51:53;24.40;;;10.38;;
59052;SDS011;44843;44.728;10.396;2022-10-30T12:54:25;18.60;;;10.25;;
59052;SDS011;44843;44.728;10.396;2022-10-30T12:57:09;17.13;;;9.95;;
59052;SDS011;44843;44.728;10.396;2022-10-30T13:00:00;18.58;;;10.55;;
59052;SDS011;44843;44.728;10.396;2022-10-30T13:05:27;17.05;;;9.00;;
59052;SDS011;44843;44.728;10.396;2022-10-30T13:07:59;19.67;;;8.50;;
59052;SDS011;44843;44.728;10.396;2022-10-30T13:10:38;18.58;;;8.30;;
59052;SDS011;44843;44.728;10.396;2022-10-30T13:13:15;23.80;;;10.07;;
59052;SDS011;44843;44.728;10.396;2022-10-30T13:15:52;20.60;;;9.45;;
59052;SDS011;44843;44.728;10.396;2022-10-30T13:18:21;20.15;;;10.13;;
59052;SDS011;44843;44.728;10.396;2022-10-30T13:23:39;23.58;;;10.85;;
59052;SDS011;44843;44.728;10.396;2022-10-30T13:26:15;16.83;;;9.15;;
59052;SDS011;44843;44.728;10.396;2022-10-30T13:29:11;19.55;;;8.70;;
59052;SDS011;44843;44.728;10.396;2022-10-30T13:53:34;14.77;;;7.82;;
59052;SDS011;44843;44.728;10.396;2022-10-30T13:56:03;15.45;;;7.38;;
59052;SDS011;44843;44.728;10.396;2022-10-30T13:58:39;13.93;;;6.75;;
59052;SDS011;44843;44.728;10.396;2022-10-30T14:04:04;15.32;;;7.15;;
59052;SDS011;44843;44.728;10.396;2022-10-30T14:11:43;18.60;;;7.10;;
59052;SDS011;44843;44.728;10.396;2022-10-30T14:19:08;14.40;;;6.93;;
59052;SDS011;44843;44.728;10.396;2022-10-30T14:21:53;14.02;;;6.40;;
59052;SDS011;44843;44.728;10.396;2022-10-30T14:26:48;13.25;;;6.00;;
59052;SDS011;44843;44.728;10.396;2022-10-30T14:42:59;16.88;;;5.88;;
59052;SDS011;44843;44.728;10.396;2022-10-30T14:56:48;13.88;;;5.93;;
59052;SDS011;44843;44.728;10.396;2022-10-30T15:07:23;10.73;;;5.80;;
59052;SDS011;44843;44.728;10.396;2022-10-30T15:15:56;11.65;;;6.03;;
59052;SDS011;44843;44.728;10.396;2022-10-30T15:18:27;10.60;;;5.95;;
59052;SDS011;44843;44.728;10.396;2022-10-30T15:20:53;8.75;;;4.70;;
59052;SDS011;44843;44.728;10.396;2022-10-30T15:28:20;11.45;;;5.35;;
59052;SDS011;44843;44.728;10.396;2022-10-30T15:33:50;12.40;;;5.65;;
59052;SDS011;44843;44.728;10.396;2022-10-30T15:36:19;13.10;;;5.60;;
59052;SDS011;44843;44.728;10.396;2022-10-30T15:39:05;12.63;;;5.80;;
59052;SDS011;44843;44.728;10.396;2022-10-30T15:41:33;10.32;;;5.30;;
59052;SDS011;44843;44.728;10.396;2022-10-30T15:44:01;13.93;;;6.03;;
59052;SDS011;44843;44.728;10.396;2022-10-30T15:46:27;20.42;;;5.78;;
59052;SDS011;44843;44.728;10.396;2022-10-30T15:48:52;13.02;;;7.10;;
59052;SDS011;44843;44.728;10.396;2022-10-30T15:51:21;16.15;;;7.45;;
59052;SDS011;44843;44.728;10.396;2022-10-30T15:53:50;14.25;;;7.75;;
59052;SDS011;44843;44.728;10.396;2022-10-30T15:56:24;14.70;;;8.15;;
59052;SDS011;44843;44.728;10.396;2022-10-30T15:58:57;16.27;;;7.30;;
59052;SDS011;44843;44.728;10.396;2022-10-30T16:01:26;14.65;;;7.03;;
59052;SDS011;44843;44.728;10.396;2022-10-30T16:03:58;15.05;;;6.55;;
59052;SDS011;44843;44.728;10.396;2022-10-30T16:06:25;19.80;;;6.80;;
59052;SDS011;44843;44.728;10.396;2022-10-30T16:08:52;14.43;;;7.15;;
59052;SDS011;44843;44.728;10.396;2022-10-30T16:11:18;22.17;;;8.63;;
59052;SDS011;44843;44.728;10.396;2022-10-30T16:13:46;15.23;;;8.07;;
59052;SDS011;44843;44.728;10.396;2022-10-30T16:16:23;20.63;;;7.57;;
59052;SDS011;44843;44.728;10.396;2022-10-30T16:18:52;20.67;;;7.43;;
59052;SDS011;44843;44.728;10.396;2022-10-30T16:21:22;14.98;;;6.97;;
59052;SDS011;44843;44.728;10.396;2022-10-30T16:23:50;61.45;;;10.05;;
59052;SDS011;44843;44.728;10.396;2022-10-30T16:26:34;15.85;;;7.15;;
59052;SDS011;44843;44.728;10.396;2022-10-30T16:29:06;17.27;;;7.07;;
59052;SDS011;44843;44.728;10.396;2022-10-30T16:31:41;18.08;;;6.70;;
59052;SDS011;44843;44.728;10.396;2022-10-30T16:34:09;11.60;;;7.15;;
59052;SDS011;44843;44.728;10.396;2022-10-30T16:36:43;14.55;;;7.22;;
59052;SDS011;44843;44.728;10.396;2022-10-30T16:39:11;14.80;;;6.40;;
59052;SDS011;44843;44.728;10.396;2022-10-30T16:41:39;13.93;;;6.88;;
59052;SDS011;44843;44.728;10.396;2022-10-30T16:46:39;15.30;;;7.10;;
59052;SDS011;44843;44.728;10.396;2022-10-30T16:49:11;12.90;;;7.10;;
59052;SDS011;44843;44.728;10.396;2022-10-30T16:51:40;10.57;;;6.50;;
59052;SDS011;44843;44.728;10.396;2022-10-30T16:54:13;16.27;;;7.35;;
59052;SDS011;44843;44.728;10.396;2022-10-30T16:56:43;15.43;;;7.53;;
59052;SDS011;44843;44.728;10.396;2022-10-30T16:59:14;16.30;;;8.63;;
59052;SDS011;44843;44.728;10.396;2022-10-30T17:01:52;17.33;;;10.40;;
59052;SDS011;44843;44.728;10.396;2022-10-30T17:04:21;18.93;;;12.27;;
59052;SDS011;44843;44.728;10.396;2022-10-30T17:06:46;43.03;;;15.20;;
59052;SDS011;44843;44.728;10.396;2022-10-30T17:09:25;24.42;;;13.57;;
59052;SDS011;44843;44.728;10.396;2022-10-30T17:14:43;22.05;;;13.65;;
59052;SDS011;44843;44.728;10.396;2022-10-30T17:17:32;25.63;;;13.40;;
59052;SDS011;44843;44.728;10.396;2022-10-30T17:22:49;19.40;;;11.50;;
59052;SDS011;44843;44.728;10.396;2022-10-30T17:25:29;24.20;;;11.68;;
59052;SDS011;44843;44.728;10.396;2022-10-30T17:28:00;17.67;;;10.75;;
59052;SDS011;44843;44.728;10.396;2022-10-30T17:30:33;20.77;;;11.00;;
59052;SDS011;44843;44.728;10.396;2022-10-30T17:33:01;20.35;;;9.98;;
59052;SDS011;44843;44.728;10.396;2022-10-30T17:35:45;17.33;;;10.70;;
59052;SDS011;44843;44.728;10.396;2022-10-30T17:38:10;21.13;;;11.20;;
59052;SDS011;44843;44.728;10.396;2022-10-30T17:40:36;20.30;;;10.52;;
59052;SDS011;44843;44.728;10.396;2022-10-30T17:43:01;20.92;;;10.48;;
59052;SDS011;44843;44.728;10.396;2022-10-30T17:45:26;24.83;;;11.80;;
59052;SDS011;44843;44.728;10.396;2022-10-30T17:47:52;22.30;;;10.63;;